createdAt,value
2019-02-09T00:00:38.494Z,5.33
2019-02-09T00:03:08.563Z,5.81
2019-02-09T00:05:39.661Z,5.83
2019-02-09T00:08:13.982Z,5.72
2019-02-09T00:10:43.385Z,6.02
2019-02-09T00:13:12.496Z,6.38
2019-02-09T00:15:41.648Z,6.14
2019-02-09T00:18:11.899Z,6.02
2019-02-09T00:20:45.343Z,3.94
2019-02-09T00:23:21.847Z,6.16
2019-02-09T00:25:51.194Z,6.06
2019-02-09T00:28:22.829Z,5.99
2019-02-09T00:30:51.929Z,5.64
2019-02-09T00:33:22.454Z,5.72
2019-02-09T00:35:53.404Z,5.58
2019-02-09T00:38:25.908Z,5.65
2019-02-09T00:41:04.123Z,5.59
2019-02-09T00:43:33.503Z,5.51
2019-02-09T00:46:08.947Z,5.40
2019-02-09T00:48:41.343Z,5.39
2019-02-09T00:51:10.468Z,5.34
2019-02-09T00:53:41.020Z,5.28
2019-02-09T00:56:10.473Z,5.35
2019-02-09T00:58:39.653Z,5.47
2019-02-09T01:01:11.743Z,5.56
2019-02-09T01:03:42.355Z,5.64
2019-02-09T01:06:16.717Z,5.29
2019-02-09T01:08:45.826Z,5.21
2019-02-09T01:11:18.350Z,5.24
2019-02-09T01:13:49.955Z,5.12
2019-02-09T01:16:22.550Z,5.13
2019-02-09T01:18:55.898Z,5.08
2019-02-09T01:21:28.177Z,5.11
2019-02-09T01:23:59.163Z,5.07
2019-02-09T01:26:28.278Z,5.24
2019-02-09T01:28:58.489Z,5.32
2019-02-09T01:31:27.605Z,5.19
2019-02-09T01:34:06.134Z,5.20
2019-02-09T01:36:39.394Z,5.24
2019-02-09T01:39:11.500Z,5.46
2019-02-09T01:41:40.653Z,4.16
2019-02-09T01:44:09.748Z,5.70
2019-02-09T01:46:43.564Z,5.85
2019-02-09T01:49:20.486Z,5.69
2019-02-09T01:51:55.908Z,5.71
2019-02-09T01:54:25.029Z,5.64
2019-02-09T01:56:54.311Z,5.62
2019-02-09T01:59:23.411Z,5.84
2019-02-09T02:02:00.099Z,5.92
2019-02-09T02:04:29.621Z,6.02
2019-02-09T02:07:03.680Z,6.24
2019-02-09T02:09:39.912Z,6.25
2019-02-09T02:12:13.500Z,6.18
2019-02-09T02:14:42.597Z,6.24
2019-02-09T02:17:11.691Z,6.11
2019-02-09T02:19:40.781Z,6.17
2019-02-09T02:22:11.162Z,6.48
2019-02-09T02:24:46.419Z,6.62
2019-02-09T02:27:23.705Z,6.82
2019-02-09T02:29:52.798Z,6.58
2019-02-09T02:32:21.983Z,6.67
2019-02-09T02:34:51.095Z,6.43
2019-02-09T02:37:21.958Z,7.05
2019-02-09T02:39:51.080Z,7.27
2019-02-09T02:42:21.662Z,7.72
2019-02-09T02:44:52.435Z,7.48
2019-02-09T02:47:28.617Z,7.41
2019-02-09T02:50:01.285Z,7.41
2019-02-09T02:52:30.377Z,7.96
2019-02-09T02:55:01.499Z,7.42
2019-02-09T02:57:32.063Z,7.45
2019-02-09T03:00:03.480Z,7.38
2019-02-09T03:02:32.602Z,7.52
2019-02-09T03:05:01.721Z,7.34
2019-02-09T03:07:32.057Z,7.53
2019-02-09T03:10:01.148Z,7.61
2019-02-09T03:12:33.817Z,7.41
2019-02-09T03:15:02.925Z,7.60
2019-02-09T03:17:32.014Z,7.60
2019-02-09T03:20:03.146Z,7.57
2019-02-09T03:22:35.191Z,7.67
2019-02-09T03:25:06.061Z,7.97
2019-02-09T03:27:35.220Z,7.87
2019-02-09T03:30:05.659Z,7.88
2019-02-09T03:32:51.242Z,7.73
2019-02-09T03:35:20.798Z,7.94
2019-02-09T03:37:53.011Z,7.88
2019-02-09T03:40:23.630Z,7.73
2019-02-09T03:42:59.504Z,7.97
2019-02-09T03:45:35.411Z,7.90
2019-02-09T03:48:16.454Z,7.82
2019-02-09T03:50:50.834Z,7.42
2019-02-09T03:53:19.914Z,7.87
2019-02-09T03:55:50.186Z,7.48
2019-02-09T03:58:19.985Z,7.44
2019-02-09T04:00:55.278Z,7.38
2019-02-09T04:03:25.404Z,7.66
2019-02-09T04:05:55.867Z,7.40
2019-02-09T04:08:30.795Z,7.21
2019-02-09T04:10:59.963Z,7.10
2019-02-09T04:13:31.279Z,7.00
2019-02-09T04:16:01.373Z,6.84
2019-02-09T04:18:30.492Z,6.87
2019-02-09T04:20:59.586Z,6.95
2019-02-09T04:23:29.954Z,7.13
2019-02-09T04:25:59.224Z,6.83
2019-02-09T04:28:31.540Z,6.90
2019-02-09T04:31:06.071Z,6.61
2019-02-09T04:33:40.829Z,6.82
2019-02-09T04:36:09.951Z,6.70
2019-02-09T04:38:40.277Z,6.65
2019-02-09T04:41:10.481Z,6.61
2019-02-09T04:43:42.482Z,6.75
2019-02-09T04:46:17.090Z,6.61
2019-02-09T04:48:46.242Z,6.81
2019-02-09T04:51:15.331Z,6.78
2019-02-09T04:53:44.779Z,6.52
2019-02-09T04:56:15.417Z,6.66
2019-02-09T04:58:44.751Z,6.67
2019-02-09T05:01:14.948Z,6.52
2019-02-09T05:03:44.168Z,6.65
2019-02-09T05:06:15.618Z,6.59
2019-02-09T05:08:45.170Z,6.48
2019-02-09T05:11:16.746Z,6.52
2019-02-09T05:13:45.857Z,6.39
2019-02-09T05:16:17.607Z,6.21
2019-02-09T05:18:48.617Z,6.35
2019-02-09T05:21:19.842Z,6.43
2019-02-09T05:23:51.817Z,6.34
2019-02-09T05:26:26.815Z,6.39
2019-02-09T05:28:55.892Z,6.43
2019-02-09T05:31:26.149Z,6.46
2019-02-09T05:34:00.395Z,6.26
2019-02-09T05:36:29.784Z,6.27
2019-02-09T05:39:00.935Z,6.43
2019-02-09T05:41:34.689Z,6.33
2019-02-09T05:44:04.091Z,6.34
2019-02-09T05:46:34.979Z,6.25
2019-02-09T05:49:05.342Z,6.18
2019-02-09T05:51:34.447Z,6.22
2019-02-09T05:54:06.817Z,6.24
2019-02-09T05:56:35.922Z,6.23
2019-02-09T05:59:05.026Z,6.26
2019-02-09T06:01:35.324Z,6.25
2019-02-09T06:04:05.557Z,6.28
2019-02-09T06:06:42.797Z,6.34
2019-02-09T06:09:16.948Z,6.54
2019-02-09T06:11:52.309Z,6.49
2019-02-09T06:14:27.319Z,6.70
2019-02-09T06:16:58.349Z,6.51
2019-02-09T06:19:28.454Z,6.52
2019-02-09T06:21:57.609Z,6.58
2019-02-09T06:24:28.926Z,6.79
2019-02-09T06:27:01.100Z,6.96
2019-02-09T06:29:34.792Z,6.78
2019-02-09T06:32:05.194Z,6.75
2019-02-09T06:34:34.290Z,6.73
2019-02-09T06:37:03.426Z,6.78
2019-02-09T06:39:38.042Z,6.89
2019-02-09T06:42:09.430Z,7.11
2019-02-09T06:44:38.613Z,7.41
2019-02-09T06:47:10.586Z,7.38
2019-02-09T06:49:40.984Z,7.39
2019-02-09T06:52:15.299Z,7.04
2019-02-09T06:54:45.058Z,7.62
2019-02-09T06:57:15.295Z,7.73
2019-02-09T06:59:44.502Z,7.63
2019-02-09T07:02:13.622Z,7.49
2019-02-09T07:04:43.021Z,7.36
2019-02-09T07:07:12.586Z,7.66
2019-02-09T07:09:41.789Z,7.77
2019-02-09T07:12:12.375Z,7.71
2019-02-09T07:14:43.314Z,7.80
2019-02-09T07:17:15.221Z,7.91
2019-02-09T07:19:48.043Z,7.98
2019-02-09T07:22:18.971Z,8.02
2019-02-09T07:24:50.846Z,7.91
2019-02-09T07:27:26.246Z,8.18
2019-02-09T07:29:55.724Z,8.24
2019-02-09T07:32:27.305Z,8.32
2019-02-09T07:34:56.418Z,8.72
2019-02-09T07:37:27.167Z,8.20
2019-02-09T07:40:00.758Z,8.32
2019-02-09T07:42:32.138Z,8.46
2019-02-09T07:45:05.622Z,8.26
2019-02-09T07:47:34.710Z,8.29
2019-02-09T07:50:06.875Z,8.24
2019-02-09T07:52:37.271Z,8.41
2019-02-09T07:55:08.557Z,7.86
2019-02-09T07:57:40.873Z,8.00
2019-02-09T08:00:18.379Z,8.43
2019-02-09T08:02:53.745Z,8.22
2019-02-09T08:05:24.220Z,7.98
2019-02-09T08:07:53.643Z,8.30
2019-02-09T08:10:25.299Z,8.37
2019-02-09T08:12:55.562Z,8.31
2019-02-09T08:15:26.402Z,8.27
2019-02-09T08:17:55.907Z,8.54
2019-02-09T08:20:47.982Z,8.42
2019-02-09T08:23:21.587Z,8.59
2019-02-09T08:25:52.871Z,8.74
2019-02-09T08:28:26.695Z,8.58
2019-02-09T08:30:57.163Z,8.91
2019-02-09T08:33:27.798Z,8.53
2019-02-09T08:35:56.903Z,8.81
2019-02-09T08:38:27.905Z,8.53
2019-02-09T08:40:59.990Z,9.09
2019-02-09T08:43:32.669Z,9.20
2019-02-09T08:46:02.135Z,9.06
2019-02-09T08:48:33.702Z,9.31
2019-02-09T08:51:06.832Z,9.03
2019-02-09T08:53:36.042Z,9.03
2019-02-09T08:56:14.383Z,8.84
2019-02-09T08:58:43.502Z,9.35
2019-02-09T09:01:13.016Z,8.96
2019-02-09T09:03:44.634Z,9.17
2019-02-09T09:06:13.835Z,9.07
2019-02-09T09:08:44.011Z,9.12
2019-02-09T09:11:16.771Z,9.34
2019-02-09T09:13:45.892Z,9.20
2019-02-09T09:16:14.983Z,9.11
2019-02-09T09:18:44.455Z,9.03
2019-02-09T09:21:14.485Z,9.31
2019-02-09T09:23:48.145Z,9.46
2019-02-09T09:26:17.249Z,9.36
2019-02-09T09:28:46.422Z,9.55
2019-02-09T09:31:21.213Z,9.78
2019-02-09T09:33:50.664Z,10.14
2019-02-09T09:36:21.803Z,10.41
2019-02-09T09:38:50.962Z,10.14
2019-02-09T09:41:21.475Z,10.03
2019-02-09T09:43:50.660Z,9.81
2019-02-09T09:46:22.707Z,10.85
2019-02-09T09:48:51.822Z,10.04
2019-02-09T09:51:21.271Z,9.65
2019-02-09T09:53:52.075Z,9.54
2019-02-09T09:56:23.802Z,9.10
2019-02-09T09:58:55.852Z,9.11
2019-02-09T10:01:28.021Z,9.13
2019-02-09T10:03:58.521Z,8.98
2019-02-09T10:06:33.557Z,8.95
2019-02-09T10:09:16.892Z,9.41
2019-02-09T10:11:48.758Z,9.22
2019-02-09T10:14:20.624Z,9.49
2019-02-09T10:16:54.059Z,9.47
2019-02-09T10:19:26.508Z,9.52
2019-02-09T10:21:58.324Z,9.40
2019-02-09T10:24:31.954Z,9.42
2019-02-09T10:27:02.237Z,9.45
2019-02-09T10:29:31.629Z,9.69
2019-02-09T10:32:03.748Z,9.73
2019-02-09T10:34:32.945Z,9.41
2019-02-09T10:37:03.462Z,9.45
2019-02-09T10:39:34.940Z,9.63
2019-02-09T10:42:04.253Z,9.57
2019-02-09T10:44:33.343Z,1.20
2019-02-09T10:47:02.641Z,9.52
2019-02-09T10:49:31.992Z,9.54
2019-02-09T10:52:05.583Z,9.54
2019-02-09T10:54:42.178Z,9.53
2019-02-09T10:57:16.450Z,9.63
2019-02-09T10:59:45.549Z,9.50
2019-02-09T11:02:14.635Z,9.42
2019-02-09T11:04:43.742Z,9.51
2019-02-09T11:07:13.206Z,9.52
2019-02-09T11:09:45.344Z,9.50
2019-02-09T11:12:14.598Z,9.05
2019-02-09T11:14:44.388Z,9.76
2019-02-09T11:17:14.374Z,9.96
2019-02-09T11:19:46.740Z,10.09
2019-02-09T11:22:17.295Z,10.12
2019-02-09T11:24:46.396Z,10.06
2019-02-09T11:27:16.674Z,10.00
2019-02-09T11:29:47.453Z,9.86
2019-02-09T11:32:16.613Z,9.87
2019-02-09T11:34:45.756Z,9.98
2019-02-09T11:37:17.900Z,10.05
2019-02-09T11:39:49.585Z,10.02
2019-02-09T11:42:19.859Z,10.16
2019-02-09T11:44:50.370Z,10.01
2019-02-09T11:47:22.612Z,9.91
2019-02-09T11:49:51.753Z,10.38
2019-02-09T11:52:22.180Z,10.09
2019-02-09T11:54:53.944Z,9.99
2019-02-09T11:57:23.035Z,10.17
2019-02-09T11:59:52.497Z,10.11
2019-02-09T12:02:23.463Z,10.07
2019-02-09T12:04:54.107Z,10.09
2019-02-09T12:07:31.010Z,10.34
2019-02-09T12:10:01.316Z,10.16
2019-02-09T12:12:30.377Z,9.98
2019-02-09T12:14:59.495Z,10.10
2019-02-09T12:17:28.712Z,10.20
2019-02-09T12:19:59.448Z,10.43
2019-02-09T12:22:31.584Z,10.33
2019-02-09T12:25:01.688Z,2.92
2019-02-09T12:27:31.439Z,10.54
2019-02-09T12:30:05.073Z,10.82
2019-02-09T12:32:37.591Z,10.65
2019-02-09T12:35:07.404Z,10.51
2019-02-09T12:37:39.062Z,10.55
2019-02-09T12:40:14.425Z,10.07
2019-02-09T12:42:47.843Z,10.12
2019-02-09T12:45:20.907Z,10.26
2019-02-09T12:47:54.525Z,10.33
2019-02-09T12:50:25.812Z,10.72
2019-02-09T12:52:55.335Z,10.47
2019-02-09T12:55:24.825Z,10.16
2019-02-09T12:57:56.535Z,10.38
2019-02-09T13:00:28.004Z,10.30
2019-02-09T13:02:57.901Z,10.49
2019-02-09T13:05:34.001Z,10.51
2019-02-09T13:08:04.607Z,10.38
2019-02-09T13:10:33.812Z,10.52
2019-02-09T13:13:02.911Z,10.49
2019-02-09T13:15:32.009Z,10.50
2019-02-09T13:18:02.847Z,10.25
2019-02-09T13:20:32.096Z,10.28
2019-02-09T13:23:02.508Z,10.18
2019-02-09T13:25:35.453Z,10.10
2019-02-09T13:28:05.300Z,10.33
2019-02-09T13:30:42.793Z,10.24
2019-02-09T13:33:13.668Z,10.24
2019-02-09T13:35:43.887Z,10.20
2019-02-09T13:38:15.523Z,10.16
2019-02-09T13:40:46.364Z,8.37
2019-02-09T13:43:15.692Z,10.77
2019-02-09T13:45:48.059Z,10.37
2019-02-09T13:48:17.170Z,10.07
2019-02-09T13:50:46.274Z,10.20
2019-02-09T13:53:15.384Z,10.47
2019-02-09T13:55:46.961Z,10.43
2019-02-09T13:58:16.048Z,10.57
2019-02-09T14:00:45.130Z,10.29
2019-02-09T14:03:14.535Z,10.20
2019-02-09T14:05:48.656Z,10.39
2019-02-09T14:08:21.538Z,10.26
2019-02-09T14:10:52.981Z,10.09
2019-02-09T14:13:22.176Z,10.28
2019-02-09T14:15:51.463Z,10.37
2019-02-09T14:18:20.553Z,10.32
2019-02-09T14:20:51.002Z,10.40
2019-02-09T14:23:20.539Z,10.40
2019-02-09T14:25:49.742Z,10.05
2019-02-09T14:28:22.350Z,10.05
2019-02-09T14:30:53.896Z,9.94
2019-02-09T14:33:23.063Z,9.95
2019-02-09T14:35:52.107Z,9.75
2019-02-09T14:38:23.300Z,10.30
2019-02-09T14:40:52.915Z,9.92
2019-02-09T14:43:30.188Z,9.86
2019-02-09T14:45:59.398Z,10.00
2019-02-09T14:48:28.525Z,9.64
2019-02-09T14:50:59.248Z,10.06
2019-02-09T14:53:28.640Z,10.34
2019-02-09T14:55:59.386Z,9.83
2019-02-09T14:58:28.510Z,9.85
2019-02-09T15:00:57.586Z,9.82
2019-02-09T15:03:30.576Z,9.81
2019-02-09T15:05:57.736Z,9.71
2019-02-09T15:08:26.825Z,9.80
2019-02-09T15:10:56.035Z,9.93
2019-02-09T15:13:26.764Z,9.86
2019-02-09T15:16:23.749Z,9.91
2019-02-09T15:18:58.066Z,9.90
2019-02-09T15:21:28.499Z,9.93
2019-02-09T15:23:57.617Z,9.93
2019-02-09T15:26:32.279Z,9.87
2019-02-09T15:29:01.353Z,9.71
2019-02-09T15:31:31.804Z,9.86
2019-02-09T15:34:10.276Z,9.87
2019-02-09T15:36:38.186Z,9.65
2019-02-09T15:39:11.576Z,9.63
2019-02-09T15:41:40.687Z,9.95
2019-02-09T15:44:10.721Z,9.99
2019-02-09T15:46:39.814Z,9.87
2019-02-09T15:49:08.919Z,9.94
2019-02-09T15:51:38.047Z,9.75
2019-02-09T15:54:09.085Z,9.76
2019-02-09T15:56:38.196Z,9.99
2019-02-09T15:59:07.482Z,10.27
2019-02-09T16:01:36.578Z,9.95
2019-02-09T16:04:08.147Z,9.95
2019-02-09T16:06:37.254Z,9.82
2019-02-09T16:09:12.346Z,10.00
2019-02-09T16:11:41.433Z,10.18
2019-02-09T16:14:10.515Z,9.90
2019-02-09T16:16:41.556Z,9.79
2019-02-09T16:19:10.638Z,9.74
2019-02-09T16:21:41.080Z,9.83
2019-02-09T16:24:17.509Z,9.96
2019-02-09T16:26:46.679Z,10.09
2019-02-09T16:29:24.532Z,9.95
2019-02-09T16:31:53.721Z,9.82
2019-02-09T16:34:25.456Z,9.83
2019-02-09T16:36:56.443Z,9.82
2019-02-09T16:39:28.371Z,9.89
2019-02-09T16:41:59.114Z,9.70
2019-02-09T16:44:28.637Z,9.77
2019-02-09T16:46:57.988Z,9.74
2019-02-09T16:49:35.092Z,9.76
2019-02-09T16:52:07.748Z,9.87
2019-02-09T16:54:44.434Z,9.80
2019-02-09T16:57:15.903Z,9.48
2019-02-09T16:59:45.031Z,9.56
2019-02-09T17:02:14.143Z,9.66
2019-02-09T17:04:43.374Z,9.47
2019-02-09T17:07:12.800Z,9.46
2019-02-09T17:09:41.944Z,9.40
2019-02-09T17:12:12.665Z,9.37
2019-02-09T17:14:42.199Z,9.20
2019-02-09T17:17:13.898Z,9.40
2019-02-09T17:19:43.047Z,9.25
2019-02-09T17:22:12.536Z,9.27
2019-02-09T17:24:44.107Z,9.23
2019-02-09T17:27:13.322Z,9.25
2019-02-09T17:29:48.219Z,0.36
2019-02-09T17:32:17.510Z,9.11
2019-02-09T17:34:47.028Z,9.10
2019-02-09T17:37:16.176Z,9.11
2019-02-09T17:39:45.292Z,8.94
2019-02-09T17:42:23.609Z,9.12
2019-02-09T17:44:53.537Z,9.23
2019-02-09T17:47:23.186Z,9.19
2019-02-09T17:49:54.844Z,9.32
2019-02-09T17:52:25.098Z,9.06
2019-02-09T17:54:54.391Z,9.20
2019-02-09T17:57:25.401Z,9.03
2019-02-09T17:59:56.237Z,9.16
2019-02-09T18:02:26.833Z,9.19
2019-02-09T18:04:59.966Z,9.09
2019-02-09T18:07:30.053Z,9.12
2019-02-09T18:10:03.703Z,9.19
2019-02-09T18:12:32.795Z,9.09
2019-02-09T18:15:05.409Z,9.22
2019-02-09T18:17:34.525Z,9.21
2019-02-09T18:20:03.943Z,9.39
2019-02-09T18:22:33.028Z,9.09
2019-02-09T18:25:10.688Z,9.22
2019-02-09T18:27:39.796Z,9.12
2019-02-09T18:30:12.014Z,9.06
2019-02-09T18:32:41.130Z,9.15
2019-02-09T18:35:16.470Z,9.14
2019-02-09T18:37:47.497Z,9.08
2019-02-09T18:40:20.788Z,9.13
2019-02-09T18:42:50.749Z,8.95
2019-02-09T18:45:33.486Z,8.90
2019-02-09T18:48:02.571Z,9.06
2019-02-09T18:50:34.936Z,9.02
2019-02-09T18:53:06.260Z,8.99
2019-02-09T18:55:36.854Z,9.09
2019-02-09T18:58:08.428Z,9.29
2019-02-09T19:00:42.912Z,9.18
2019-02-09T19:03:14.641Z,9.34
2019-02-09T19:05:43.813Z,9.07
2019-02-09T19:08:15.985Z,9.47
2019-02-09T19:10:45.081Z,9.74
2019-02-09T19:13:21.698Z,9.22
2019-02-09T19:15:54.628Z,9.14
2019-02-09T19:18:26.832Z,8.91
2019-02-09T19:20:58.332Z,9.16
2019-02-09T19:23:30.415Z,9.02
2019-02-09T19:26:01.145Z,8.88
2019-02-09T19:28:31.332Z,9.21
2019-02-09T19:31:00.451Z,9.19
2019-02-09T19:33:29.540Z,9.08
2019-02-09T19:35:58.662Z,9.22
2019-02-09T19:38:28.313Z,9.00
2019-02-09T19:41:04.353Z,9.51
2019-02-09T19:43:33.558Z,9.72
2019-02-09T19:46:02.669Z,1.49
2019-02-09T19:48:33.482Z,9.85
2019-02-09T19:51:07.795Z,9.83
2019-02-09T19:53:37.685Z,9.23
2019-02-09T19:56:06.892Z,9.34
2019-02-09T19:58:40.425Z,9.72
2019-02-09T20:01:11.459Z,9.57
2019-02-09T20:03:42.297Z,9.65
2019-02-09T20:06:15.530Z,9.59
2019-02-09T20:08:45.003Z,9.20
2019-02-09T20:11:19.370Z,9.66
2019-02-09T20:13:48.863Z,9.75
2019-02-09T20:16:20.595Z,10.29
2019-02-09T20:18:49.748Z,10.29
2019-02-09T20:21:20.206Z,10.12
2019-02-09T20:24:01.815Z,10.31
2019-02-09T20:26:38.618Z,10.64
2019-02-09T20:29:07.730Z,10.50
2019-02-09T20:31:37.032Z,10.25
2019-02-09T20:34:06.515Z,10.19
2019-02-09T20:36:49.911Z,10.06
2019-02-09T20:39:18.990Z,9.02
2019-02-09T20:41:49.959Z,9.76
2019-02-09T20:44:19.947Z,9.70
2019-02-09T20:46:49.108Z,9.23
2019-02-09T20:49:18.422Z,9.38
2019-02-09T20:51:50.072Z,9.28
2019-02-09T20:54:20.718Z,9.34
2019-02-09T20:56:59.319Z,9.06
2019-02-09T20:59:28.435Z,9.52
2019-02-09T21:01:59.343Z,9.67
2019-02-09T21:04:28.493Z,9.97
2019-02-09T21:06:57.593Z,10.07
2019-02-09T21:09:26.690Z,9.63
2019-02-09T21:11:55.792Z,9.44
2019-02-09T21:14:25.203Z,9.47
2019-02-09T21:17:01.876Z,9.52
2019-02-09T21:19:30.990Z,9.16
2019-02-09T21:22:01.761Z,9.40
2019-02-09T21:24:31.223Z,9.27
2019-02-09T21:27:01.904Z,9.57
2019-02-09T21:29:39.080Z,9.54
2019-02-09T21:32:08.142Z,9.24
2019-02-09T21:34:37.358Z,9.22
2019-02-09T21:37:06.473Z,9.17
2019-02-09T21:39:36.636Z,9.39
2019-02-09T21:42:08.519Z,9.18
2019-02-09T21:44:41.783Z,9.60
2019-02-09T21:47:08.959Z,9.56
2019-02-09T21:49:38.169Z,9.74
2019-02-09T21:52:09.781Z,9.76
2019-02-09T21:54:40.406Z,9.53
2019-02-09T21:57:10.583Z,9.65
2019-02-09T21:59:39.787Z,9.70
2019-02-09T22:02:08.906Z,9.71
2019-02-09T22:04:39.447Z,9.76
2019-02-09T22:07:09.627Z,9.69
2019-02-09T22:09:44.118Z,9.86
2019-02-09T22:12:13.300Z,9.41
2019-02-09T22:14:42.865Z,9.72
2019-02-09T22:17:18.014Z,9.43
2019-02-09T22:19:47.451Z,9.45
2019-02-09T22:22:18.652Z,9.36
2019-02-09T22:24:47.579Z,9.44
2019-02-09T22:27:18.423Z,9.25
2019-02-09T22:29:48.669Z,9.24
2019-02-09T22:32:17.743Z,9.10
2019-02-09T22:34:46.864Z,8.82
2019-02-09T22:37:17.969Z,8.79
2019-02-09T22:39:48.480Z,8.64
2019-02-09T22:42:23.160Z,8.56
2019-02-09T22:44:54.004Z,8.56
2019-02-09T22:47:23.137Z,8.70
2019-02-09T22:49:53.782Z,8.38
2019-02-09T22:52:24.745Z,8.42
2019-02-09T22:54:53.744Z,8.67
2019-02-09T22:57:26.225Z,8.25
2019-02-09T22:59:55.305Z,8.33
2019-02-09T23:02:26.270Z,8.16
2019-02-09T23:05:08.369Z,8.11
2019-02-09T23:07:37.964Z,8.38
2019-02-09T23:10:12.641Z,-0.27
2019-02-09T23:12:48.412Z,8.54
2019-02-09T23:15:12.654Z,8.37
2019-02-09T23:17:41.784Z,8.54
2019-02-09T23:20:13.195Z,8.58
2019-02-09T23:22:47.340Z,8.60
2019-02-09T23:25:18.428Z,8.48
2019-02-09T23:27:50.017Z,8.57
2019-02-09T23:30:19.116Z,8.62
2019-02-09T23:32:48.193Z,8.85
2019-02-09T23:35:17.300Z,8.91
2019-02-09T23:37:48.115Z,8.82
2019-02-09T23:40:23.718Z,8.66
2019-02-09T23:42:57.702Z,8.49
2019-02-09T23:45:27.886Z,8.39
2019-02-09T23:47:58.973Z,8.09
2019-02-09T23:50:30.629Z,8.07
2019-02-09T23:52:59.716Z,7.75
2019-02-09T23:55:30.011Z,7.90
2019-02-09T23:57:59.111Z,7.94
